createdAt,value
2018-06-10T00:00:47.612Z,0
2018-06-10T00:01:49.227Z,0
2018-06-10T00:02:50.839Z,8
2018-06-10T00:03:52.454Z,0
2018-06-10T00:04:54.071Z,0
2018-06-10T00:05:55.685Z,0
2018-06-10T00:06:57.303Z,0
2018-06-10T00:07:58.917Z,0
2018-06-10T00:09:00.532Z,0
2018-06-10T00:10:02.148Z,0
2018-06-10T00:11:03.764Z,0
2018-06-10T00:12:06.179Z,0
2018-06-10T00:13:07.799Z,0
2018-06-10T00:14:09.420Z,0
2018-06-10T00:15:11.035Z,0
2018-06-10T00:16:12.652Z,0
2018-06-10T00:17:14.267Z,0
2018-06-10T00:18:15.881Z,0
2018-06-10T00:19:17.498Z,0
2018-06-10T00:20:19.114Z,0
2018-06-10T00:21:20.732Z,0
2018-06-10T00:22:22.349Z,0
2018-06-10T00:23:23.962Z,0
2018-06-10T00:24:25.579Z,0
2018-06-10T00:25:27.196Z,0
2018-06-10T00:26:28.810Z,0
2018-06-10T00:27:30.427Z,0
2018-06-10T00:28:32.040Z,0
2018-06-10T00:29:33.656Z,0
2018-06-10T00:30:35.269Z,0
2018-06-10T00:31:36.883Z,0
2018-06-10T00:32:38.498Z,0
2018-06-10T00:33:40.111Z,0
2018-06-10T00:34:41.725Z,0
2018-06-10T00:35:43.341Z,0
2018-06-10T00:36:44.958Z,0
2018-06-10T00:37:46.570Z,0
2018-06-10T00:38:48.184Z,0
2018-06-10T00:39:49.796Z,0
2018-06-10T00:40:51.411Z,0
2018-06-10T00:41:53.027Z,0
2018-06-10T00:42:54.641Z,0
2018-06-10T00:43:56.260Z,0
2018-06-10T00:44:57.872Z,0
2018-06-10T00:45:59.490Z,0
2018-06-10T00:47:01.099Z,0
2018-06-10T00:48:02.714Z,0
2018-06-10T00:49:04.328Z,0
2018-06-10T00:50:05.941Z,0
2018-06-10T00:51:07.559Z,0
2018-06-10T00:52:09.171Z,0
2018-06-10T00:53:10.786Z,0
2018-06-10T00:54:12.396Z,0
2018-06-10T00:55:14.011Z,0
2018-06-10T00:56:15.626Z,0
2018-06-10T00:57:17.243Z,0
2018-06-10T00:58:18.858Z,0
2018-06-10T00:59:20.469Z,0
2018-06-10T01:00:22.085Z,0
2018-06-10T01:01:23.697Z,0
2018-06-10T01:02:25.312Z,0
2018-06-10T01:03:26.924Z,0
2018-06-10T01:04:28.543Z,0
2018-06-10T01:05:30.161Z,0
2018-06-10T01:06:31.765Z,0
2018-06-10T01:07:33.384Z,0
2018-06-10T01:08:34.992Z,0
2018-06-10T01:09:36.608Z,0
2018-06-10T01:10:38.222Z,0
2018-06-10T01:11:39.842Z,0
2018-06-10T01:12:41.452Z,0
2018-06-10T01:13:43.064Z,0
2018-06-10T01:14:44.677Z,0
2018-06-10T01:15:46.290Z,0
2018-06-10T01:16:47.904Z,0
2018-06-10T01:17:49.520Z,0
2018-06-10T01:18:51.135Z,0
2018-06-10T01:19:52.750Z,0
2018-06-10T01:20:54.363Z,0
2018-06-10T01:21:55.976Z,0
2018-06-10T01:22:57.589Z,0
2018-06-10T01:23:59.203Z,0
2018-06-10T01:25:07.527Z,0
2018-06-10T01:26:09.143Z,0
2018-06-10T01:27:10.763Z,0
2018-06-10T01:28:12.375Z,0
2018-06-10T01:29:13.987Z,0
2018-06-10T01:30:15.605Z,0
2018-06-10T01:31:17.217Z,0
2018-06-10T01:32:18.837Z,0
2018-06-10T01:33:20.443Z,0
2018-06-10T01:34:22.795Z,0
2018-06-10T01:35:24.407Z,0
2018-06-10T01:36:26.019Z,0
2018-06-10T01:37:27.632Z,0
2018-06-10T01:38:29.245Z,0
2018-06-10T01:39:30.858Z,0
2018-06-10T01:40:32.472Z,0
2018-06-10T01:41:34.087Z,0
2018-06-10T01:42:35.697Z,0
2018-06-10T01:43:37.310Z,0
2018-06-10T01:44:38.930Z,0
2018-06-10T01:45:40.537Z,0
2018-06-10T01:46:42.158Z,0
2018-06-10T01:47:43.776Z,0
2018-06-10T01:48:45.394Z,0
2018-06-10T01:49:47.013Z,0
2018-06-10T01:50:48.625Z,0
2018-06-10T01:51:50.240Z,0
2018-06-10T01:52:51.860Z,0
2018-06-10T01:53:53.486Z,0
2018-06-10T01:54:55.104Z,0
2018-06-10T01:55:56.717Z,0
2018-06-10T01:56:58.334Z,0
2018-06-10T01:57:59.948Z,0
2018-06-10T01:59:01.566Z,0
2018-06-10T02:00:03.181Z,0
2018-06-10T02:01:04.798Z,0
2018-06-10T02:02:06.419Z,0
2018-06-10T02:03:08.040Z,0
2018-06-10T02:04:09.651Z,0
2018-06-10T02:05:11.270Z,0
2018-06-10T02:06:12.888Z,0
2018-06-10T02:07:14.502Z,0
2018-06-10T02:08:16.113Z,0
2018-06-10T02:09:17.740Z,0
2018-06-10T02:10:19.352Z,0
2018-06-10T02:11:20.972Z,0
2018-06-10T02:12:22.586Z,0
2018-06-10T02:13:24.204Z,0
2018-06-10T02:14:25.826Z,0
2018-06-10T02:15:27.445Z,0
2018-06-10T02:16:29.063Z,0
2018-06-10T02:17:30.680Z,0
2018-06-10T02:18:32.295Z,0
2018-06-10T02:19:33.906Z,0
2018-06-10T02:20:35.529Z,0
2018-06-10T02:21:37.142Z,0
2018-06-10T02:22:38.762Z,0
2018-06-10T02:23:40.375Z,0
2018-06-10T02:24:41.997Z,0
2018-06-10T02:25:43.608Z,0
2018-06-10T02:26:45.226Z,0
2018-06-10T02:27:46.839Z,0
2018-06-10T02:28:48.458Z,0
2018-06-10T02:29:50.074Z,0
2018-06-10T02:30:51.689Z,0
2018-06-10T02:31:53.306Z,0
2018-06-10T02:32:54.925Z,0
2018-06-10T02:33:56.537Z,0
2018-06-10T02:34:58.157Z,0
2018-06-10T02:35:59.769Z,0
2018-06-10T02:37:01.390Z,0
2018-06-10T02:38:03.008Z,0
2018-06-10T02:39:05.481Z,0
2018-06-10T02:40:07.090Z,0
2018-06-10T02:41:08.709Z,0
2018-06-10T02:42:10.321Z,0
2018-06-10T02:43:11.950Z,0
2018-06-10T02:44:13.564Z,0
2018-06-10T02:45:15.189Z,4
2018-06-10T02:46:16.800Z,4
2018-06-10T02:47:18.416Z,4
2018-06-10T02:48:20.028Z,0
2018-06-10T02:49:21.646Z,4
2018-06-10T02:50:23.259Z,4
2018-06-10T02:51:24.892Z,8
2018-06-10T02:52:26.506Z,4
2018-06-10T02:53:28.125Z,8
2018-06-10T02:54:29.741Z,8
2018-06-10T02:55:31.372Z,12
2018-06-10T02:56:32.984Z,12
2018-06-10T02:57:34.609Z,16
2018-06-10T02:58:36.225Z,16
2018-06-10T02:59:37.851Z,16
2018-06-10T03:00:39.463Z,16
2018-06-10T03:01:41.081Z,24
2018-06-10T03:02:42.697Z,24
2018-06-10T03:03:44.323Z,24
2018-06-10T03:04:45.934Z,28
2018-06-10T03:05:47.555Z,28
2018-06-10T03:06:49.170Z,36
2018-06-10T03:07:50.861Z,36
2018-06-10T03:08:52.372Z,36
2018-06-10T03:09:53.991Z,40
2018-06-10T03:10:55.602Z,44
2018-06-10T03:11:57.224Z,44
2018-06-10T03:12:58.838Z,48
2018-06-10T03:14:00.471Z,48
2018-06-10T03:15:02.089Z,48
2018-06-10T03:16:03.704Z,56
2018-06-10T03:17:05.325Z,56
2018-06-10T03:18:06.943Z,56
2018-06-10T03:19:08.558Z,60
2018-06-10T03:20:10.174Z,64
2018-06-10T03:21:11.805Z,68
2018-06-10T03:22:13.429Z,68
2018-06-10T03:23:15.042Z,72
2018-06-10T03:24:16.675Z,76
2018-06-10T03:25:18.287Z,80
2018-06-10T03:26:19.914Z,84
2018-06-10T03:27:21.530Z,88
2018-06-10T03:28:23.147Z,92
2018-06-10T03:29:24.774Z,100
2018-06-10T03:30:26.391Z,108
2018-06-10T03:31:28.008Z,112
2018-06-10T03:32:29.632Z,124
2018-06-10T03:33:31.249Z,132
2018-06-10T03:34:32.874Z,144
2018-06-10T03:35:34.498Z,152
2018-06-10T03:36:36.121Z,164
2018-06-10T03:37:37.734Z,176
2018-06-10T03:38:39.366Z,184
2018-06-10T03:39:40.975Z,192
2018-06-10T03:40:42.596Z,204
2018-06-10T03:41:44.217Z,216
2018-06-10T03:42:45.835Z,220
2018-06-10T03:43:47.486Z,224
2018-06-10T03:44:49.103Z,240
2018-06-10T03:45:50.729Z,256
2018-06-10T03:46:52.345Z,276
2018-06-10T03:47:53.973Z,300
2018-06-10T03:48:55.597Z,328
2018-06-10T03:49:57.212Z,352
2018-06-10T03:50:58.838Z,380
2018-06-10T03:52:00.469Z,400
2018-06-10T03:53:02.093Z,428
2018-06-10T03:54:03.708Z,448
2018-06-10T03:55:05.333Z,472
2018-06-10T03:56:06.950Z,488
2018-06-10T03:57:08.577Z,500
2018-06-10T03:58:10.199Z,524
2018-06-10T03:59:11.819Z,548
2018-06-10T04:00:13.435Z,568
2018-06-10T04:01:15.060Z,592
2018-06-10T04:02:16.678Z,616
2018-06-10T04:03:18.302Z,636
2018-06-10T04:04:19.922Z,660
2018-06-10T04:05:22.374Z,676
2018-06-10T04:06:23.114Z,700
2018-06-10T04:07:24.738Z,724
2018-06-10T04:08:26.356Z,748
2018-06-10T04:09:27.978Z,772
2018-06-10T04:10:29.596Z,788
2018-06-10T04:11:31.225Z,804
2018-06-10T04:12:32.840Z,824
2018-06-10T04:13:34.461Z,848
2018-06-10T04:14:36.080Z,888
2018-06-10T04:15:37.696Z,936
2018-06-10T04:16:39.325Z,984
2018-06-10T04:17:40.946Z,1020
2018-06-10T04:18:42.570Z,1036
2018-06-10T04:19:44.193Z,1040
2018-06-10T04:20:45.818Z,1048
2018-06-10T04:21:47.437Z,1056
2018-06-10T04:22:49.064Z,1056
2018-06-10T04:23:50.692Z,1064
2018-06-10T04:24:52.310Z,1072
2018-06-10T04:25:53.931Z,1088
2018-06-10T04:26:55.559Z,1096
2018-06-10T04:27:57.182Z,1092
2018-06-10T04:28:58.802Z,1076
2018-06-10T04:30:00.421Z,1064
2018-06-10T04:31:02.049Z,1060
2018-06-10T04:32:03.685Z,1056
2018-06-10T04:33:05.302Z,1044
2018-06-10T04:34:06.926Z,1028
2018-06-10T04:35:08.541Z,1020
2018-06-10T04:36:10.170Z,1036
2018-06-10T04:37:11.785Z,1036
2018-06-10T04:38:13.410Z,1024
2018-06-10T04:39:15.030Z,1008
2018-06-10T04:40:16.667Z,1004
2018-06-10T04:41:18.292Z,1004
2018-06-10T04:42:19.915Z,1008
2018-06-10T04:43:21.531Z,1020
2018-06-10T04:44:23.155Z,1020
2018-06-10T04:45:24.775Z,1000
2018-06-10T04:46:26.397Z,964
2018-06-10T04:47:28.023Z,932
2018-06-10T04:48:29.642Z,916
2018-06-10T04:49:31.259Z,932
2018-06-10T04:50:32.884Z,972
2018-06-10T04:51:34.502Z,1016
2018-06-10T04:52:36.132Z,1056
2018-06-10T04:53:37.757Z,1076
2018-06-10T04:54:39.376Z,1068
2018-06-10T04:55:41.013Z,1040
2018-06-10T04:56:42.630Z,1016
2018-06-10T04:57:44.258Z,1024
2018-06-10T04:58:45.875Z,1056
2018-06-10T04:59:47.503Z,1088
2018-06-10T05:00:49.124Z,1116
2018-06-10T05:01:50.753Z,1160
2018-06-10T05:02:52.379Z,1224
2018-06-10T05:03:53.999Z,1312
2018-06-10T05:04:55.623Z,1404
2018-06-10T05:05:57.247Z,1488
2018-06-10T05:06:58.866Z,1556
2018-06-10T05:08:00.495Z,1616
2018-06-10T05:09:02.121Z,1672
2018-06-10T05:10:03.746Z,1756
2018-06-10T05:11:05.371Z,1860
2018-06-10T05:12:06.991Z,1948
2018-06-10T05:13:08.618Z,2000
2018-06-10T05:14:10.239Z,2020
2018-06-10T05:15:11.869Z,2020
2018-06-10T05:16:13.491Z,2036
2018-06-10T05:17:15.124Z,2068
2018-06-10T05:18:16.741Z,2116
2018-06-10T05:19:18.366Z,2184
2018-06-10T05:20:19.994Z,2276
2018-06-10T05:21:21.620Z,2396
2018-06-10T05:22:23.247Z,2528
2018-06-10T05:23:24.870Z,2672
2018-06-10T05:24:26.499Z,2832
2018-06-10T05:25:28.124Z,3008
2018-06-10T05:26:29.747Z,3184
2018-06-10T05:27:31.368Z,3336
2018-06-10T05:28:32.996Z,3432
2018-06-10T05:29:34.625Z,3500
2018-06-10T05:30:36.246Z,3536
2018-06-10T05:31:37.875Z,3556
2018-06-10T05:32:39.492Z,3564
2018-06-10T05:33:41.113Z,3592
2018-06-10T05:34:42.740Z,3636
2018-06-10T05:35:44.368Z,3696
2018-06-10T05:36:45.995Z,3772
2018-06-10T05:37:47.619Z,3852
2018-06-10T05:38:49.242Z,3892
2018-06-10T05:39:50.860Z,3888
2018-06-10T05:40:52.494Z,3860
2018-06-10T05:41:54.118Z,3828
2018-06-10T05:42:55.744Z,3792
2018-06-10T05:43:57.364Z,3808
2018-06-10T05:44:58.998Z,3876
2018-06-10T05:46:00.626Z,3972
2018-06-10T05:47:02.247Z,4052
2018-06-10T05:48:03.871Z,4120
2018-06-10T05:49:05.491Z,4184
2018-06-10T05:50:07.112Z,4268
2018-06-10T05:51:08.742Z,4348
2018-06-10T05:52:10.363Z,4384
2018-06-10T05:53:11.990Z,4368
2018-06-10T05:54:13.611Z,4364
2018-06-10T05:55:15.238Z,4348
2018-06-10T05:56:16.859Z,4320
2018-06-10T05:57:18.489Z,4244
2018-06-10T05:58:20.110Z,4216
2018-06-10T05:59:21.735Z,4260
2018-06-10T06:00:23.367Z,4316
2018-06-10T06:01:24.995Z,4368
2018-06-10T06:02:26.619Z,4420
2018-06-10T06:03:28.240Z,4480
2018-06-10T06:04:29.862Z,4584
2018-06-10T06:05:31.493Z,4732
2018-06-10T06:06:33.125Z,4904
2018-06-10T06:07:34.754Z,5068
2018-06-10T06:08:36.377Z,5200
2018-06-10T06:09:38.038Z,5340
2018-06-10T06:10:39.622Z,5484
2018-06-10T06:11:41.253Z,5592
2018-06-10T06:12:42.875Z,5672
2018-06-10T06:13:44.501Z,5768
2018-06-10T06:14:46.123Z,5900
2018-06-10T06:15:47.745Z,6056
2018-06-10T06:16:49.372Z,6244
2018-06-10T06:17:50.997Z,6440
2018-06-10T06:18:52.634Z,6596
2018-06-10T06:19:54.256Z,6636
2018-06-10T06:20:55.887Z,6652
2018-06-10T06:21:57.511Z,6544
2018-06-10T06:22:59.137Z,6488
2018-06-10T06:24:00.761Z,6484
2018-06-10T06:25:02.389Z,6464
2018-06-10T06:26:04.011Z,6400
2018-06-10T06:27:05.638Z,6368
2018-06-10T06:28:07.266Z,6308
2018-06-10T06:29:08.899Z,6292
2018-06-10T06:30:10.523Z,6304
2018-06-10T06:31:12.159Z,5768
2018-06-10T06:32:13.773Z,5800
2018-06-10T06:33:15.455Z,5824
2018-06-10T06:34:17.027Z,5824
2018-06-10T06:35:18.688Z,5912
2018-06-10T06:36:20.312Z,5996
2018-06-10T06:37:21.984Z,6112
2018-06-10T06:38:23.605Z,6264
2018-06-10T06:39:25.256Z,6392
2018-06-10T06:40:27.338Z,6496
2018-06-10T06:41:28.976Z,6608
2018-06-10T06:42:30.619Z,6856
2018-06-10T06:43:32.270Z,7368
2018-06-10T06:44:33.929Z,8032
2018-06-10T06:45:35.566Z,8636
2018-06-10T06:46:37.195Z,9088
2018-06-10T06:47:38.818Z,9400
2018-06-10T06:48:40.448Z,9592
2018-06-10T06:49:42.071Z,9672
2018-06-10T06:50:43.702Z,9668
2018-06-10T06:51:45.327Z,9596
2018-06-10T06:52:46.952Z,9476
2018-06-10T06:53:48.579Z,9304
2018-06-10T06:54:50.201Z,9040
2018-06-10T06:55:51.824Z,8752
2018-06-10T06:56:53.457Z,8536
2018-06-10T06:57:55.095Z,8416
2018-06-10T06:58:56.701Z,8412
2018-06-10T06:59:58.328Z,8500
2018-06-10T07:00:59.957Z,8668
2018-06-10T07:02:01.602Z,8728
2018-06-10T07:03:03.224Z,8644
2018-06-10T07:04:04.856Z,8448
2018-06-10T07:05:06.482Z,8200
2018-06-10T07:06:08.103Z,7936
2018-06-10T07:07:09.731Z,7752
2018-06-10T07:08:11.360Z,7840
2018-06-10T07:09:12.986Z,8204
2018-06-10T07:10:14.632Z,8836
2018-06-10T07:11:16.262Z,10256
2018-06-10T07:12:17.893Z,9980
2018-06-10T07:13:19.519Z,10232
2018-06-10T07:14:21.141Z,10108
2018-06-10T07:15:22.772Z,9764
2018-06-10T07:16:24.491Z,9832
2018-06-10T07:17:26.119Z,10164
2018-06-10T07:18:27.753Z,10380
2018-06-10T07:19:29.377Z,10680
2018-06-10T07:20:31.001Z,10892
2018-06-10T07:21:32.625Z,10852
2018-06-10T07:22:34.258Z,11164
2018-06-10T07:23:35.932Z,11692
2018-06-10T07:24:37.516Z,11744
2018-06-10T07:25:39.140Z,11416
2018-06-10T07:26:40.771Z,11252
2018-06-10T07:27:42.394Z,10748
2018-06-10T07:28:44.033Z,10264
2018-06-10T07:29:49.982Z,9884
2018-06-10T07:30:52.018Z,9464
2018-06-10T07:31:53.777Z,9092
2018-06-10T07:32:56.349Z,8432
2018-06-10T07:33:59.449Z,7884
2018-06-10T07:35:03.005Z,7552
2018-06-10T07:36:04.646Z,7076
2018-06-10T07:37:06.303Z,6820
2018-06-10T07:38:08.681Z,6784
2018-06-10T07:39:12.560Z,6976
2018-06-10T07:40:16.915Z,7236
2018-06-10T07:41:21.192Z,7532
2018-06-10T07:42:26.079Z,7792
2018-06-10T07:43:30.477Z,8132
2018-06-10T07:44:37.219Z,8432
2018-06-10T07:45:43.667Z,8628
2018-06-10T07:46:46.564Z,8820
2018-06-10T07:47:51.799Z,8960
2018-06-10T07:48:55.252Z,8364
2018-06-10T07:49:59.871Z,7564
2018-06-10T07:51:01.434Z,7000
2018-06-10T07:52:03.154Z,6896
2018-06-10T07:53:04.816Z,6724
2018-06-10T07:54:06.446Z,6512
2018-06-10T07:55:08.069Z,6308
2018-06-10T07:56:09.702Z,6984
2018-06-10T07:57:11.344Z,7884
2018-06-10T07:58:12.979Z,8016
2018-06-10T07:59:14.599Z,8108
2018-06-10T08:00:16.228Z,7988
2018-06-10T08:01:17.852Z,7700
2018-06-10T08:02:19.480Z,7320
2018-06-10T08:03:21.106Z,6984
2018-06-10T08:04:22.821Z,6904
2018-06-10T08:05:24.497Z,8056
2018-06-10T08:06:26.079Z,9752
2018-06-10T08:07:27.703Z,11480
2018-06-10T08:08:29.333Z,11840
2018-06-10T08:09:30.961Z,11148
2018-06-10T08:10:32.601Z,11188
2018-06-10T08:11:34.234Z,10880
2018-06-10T08:12:35.850Z,10428
2018-06-10T08:13:37.516Z,10284
2018-06-10T08:14:39.214Z,11132
2018-06-10T08:15:40.843Z,12796
2018-06-10T08:16:42.477Z,14640
2018-06-10T08:17:44.143Z,18208
2018-06-10T08:18:45.855Z,18976
2018-06-10T08:19:47.395Z,27488
2018-06-10T08:20:49.027Z,29856
2018-06-10T08:21:50.652Z,32672
2018-06-10T08:22:52.284Z,32704
2018-06-10T08:23:53.911Z,33952
2018-06-10T08:24:55.577Z,33120
2018-06-10T08:25:57.358Z,35136
2018-06-10T08:26:59.003Z,33024
2018-06-10T08:28:00.700Z,20896
2018-06-10T08:29:02.334Z,18624
2018-06-10T08:30:03.965Z,16120
2018-06-10T08:31:05.599Z,16220
2018-06-10T08:32:07.227Z,17248
2018-06-10T08:33:09.131Z,20064
2018-06-10T08:34:10.765Z,20832
2018-06-10T08:35:12.394Z,15796
2018-06-10T08:36:14.026Z,10756
2018-06-10T08:37:15.659Z,10188
2018-06-10T08:38:17.452Z,10128
2018-06-10T08:39:19.179Z,10196
2018-06-10T08:40:20.803Z,10696
2018-06-10T08:41:22.434Z,11452
2018-06-10T08:42:24.064Z,11836
2018-06-10T08:43:25.694Z,11772
2018-06-10T08:44:27.328Z,10916
2018-06-10T08:45:28.953Z,9752
2018-06-10T08:46:30.583Z,10316
2018-06-10T08:47:32.213Z,11748
2018-06-10T08:48:33.844Z,13688
2018-06-10T08:49:35.577Z,15728
2018-06-10T08:50:37.356Z,14884
2018-06-10T08:51:38.933Z,15184
2018-06-10T08:52:40.559Z,15936
2018-06-10T08:53:42.194Z,18432
2018-06-10T08:54:43.820Z,21568
2018-06-10T08:55:45.454Z,16520
2018-06-10T08:56:47.080Z,17152
2018-06-10T08:57:48.716Z,21536
2018-06-10T08:58:50.343Z,21152
2018-06-10T08:59:52.287Z,22880
2018-06-10T09:00:53.973Z,23616
2018-06-10T09:01:55.708Z,24288
2018-06-10T09:02:57.351Z,23776
2018-06-10T09:03:58.994Z,21952
2018-06-10T09:05:00.594Z,21152
2018-06-10T09:06:02.226Z,21184
2018-06-10T09:07:03.852Z,22336
2018-06-10T09:08:05.488Z,24288
2018-06-10T09:09:07.113Z,26688
2018-06-10T09:10:08.741Z,37280
2018-06-10T09:11:10.568Z,32672
2018-06-10T09:12:12.364Z,30720
2018-06-10T09:13:14.066Z,37728
2018-06-10T09:14:15.702Z,37120
2018-06-10T09:15:17.331Z,38336
2018-06-10T09:16:18.958Z,45824
2018-06-10T09:17:20.588Z,44928
2018-06-10T09:18:22.220Z,47296
2018-06-10T09:19:23.860Z,57504
2018-06-10T09:20:25.489Z,53408
2018-06-10T09:21:27.122Z,47424
2018-06-10T09:22:28.769Z,57824
2018-06-10T09:23:30.394Z,57952
2018-06-10T09:24:32.090Z,37248
2018-06-10T09:25:33.818Z,42752
2018-06-10T09:26:35.452Z,57696
2018-06-10T09:27:37.093Z,59680
2018-06-10T09:28:38.724Z,62048
2018-06-10T09:29:40.368Z,59904
2018-06-10T09:30:41.998Z,51520
2018-06-10T09:31:43.636Z,54688
2018-06-10T09:32:45.273Z,60064
2018-06-10T09:33:46.911Z,36832
2018-06-10T09:34:48.626Z,48224
2018-06-10T09:35:50.363Z,27488
2018-06-10T09:36:52.008Z,23104
2018-06-10T09:37:53.636Z,20864
2018-06-10T09:38:55.274Z,20032
2018-06-10T09:39:56.906Z,24544
2018-06-10T09:40:58.541Z,19968
2018-06-10T09:42:00.245Z,21632
2018-06-10T09:43:01.830Z,47648
2018-06-10T09:44:03.482Z,26272
2018-06-10T09:45:05.114Z,17952
2018-06-10T09:46:06.791Z,14752
2018-06-10T09:47:08.500Z,10684
2018-06-10T09:48:10.137Z,10528
2018-06-10T09:49:11.777Z,11420
2018-06-10T09:50:13.409Z,11836
2018-06-10T09:51:15.044Z,11252
2018-06-10T09:52:16.682Z,10524
2018-06-10T09:53:18.310Z,9916
2018-06-10T09:54:19.944Z,9708
2018-06-10T09:55:21.679Z,10264
2018-06-10T09:56:23.276Z,10812
2018-06-10T09:57:24.907Z,11568
2018-06-10T09:58:26.582Z,15496
2018-06-10T09:59:28.294Z,14480
2018-06-10T10:00:29.924Z,15600
2018-06-10T10:01:31.555Z,15928
2018-06-10T10:02:33.183Z,15552
2018-06-10T10:03:34.827Z,14820
2018-06-10T10:04:36.457Z,14728
2018-06-10T10:05:38.099Z,15388
2018-06-10T10:06:39.724Z,16432
2018-06-10T10:07:41.358Z,17632
2018-06-10T10:08:42.989Z,17472
2018-06-10T10:09:44.788Z,17952
2018-06-10T10:10:46.391Z,18944
2018-06-10T10:11:48.046Z,20992
2018-06-10T10:12:49.677Z,19488
2018-06-10T10:13:51.310Z,19584
2018-06-10T10:14:52.978Z,20800
2018-06-10T10:15:54.617Z,20704
2018-06-10T10:16:56.249Z,20512
2018-06-10T10:17:57.881Z,20128
2018-06-10T10:18:59.516Z,18752
2018-06-10T10:20:01.144Z,17312
2018-06-10T10:21:02.850Z,16316
2018-06-10T10:22:04.600Z,16064
2018-06-10T10:23:06.257Z,16460
2018-06-10T10:24:07.887Z,17280
2018-06-10T10:25:09.519Z,17792
2018-06-10T10:26:11.156Z,18464
2018-06-10T10:27:12.787Z,19872
2018-06-10T10:28:14.422Z,22048
2018-06-10T10:29:16.048Z,25440
2018-06-10T10:30:17.679Z,25760
2018-06-10T10:31:19.315Z,32832
2018-06-10T10:32:21.092Z,37856
2018-06-10T10:33:22.716Z,47200
2018-06-10T10:34:24.346Z,56384
2018-06-10T10:35:25.982Z,55168
2018-06-10T10:36:27.612Z,40448
2018-06-10T10:37:29.245Z,40224
2018-06-10T10:38:30.933Z,56320
2018-06-10T10:39:32.519Z,36928
2018-06-10T10:40:34.148Z,31872
2018-06-10T10:41:35.788Z,36064
2018-06-10T10:42:37.423Z,37760
2018-06-10T10:43:39.125Z,33536
2018-06-10T10:44:40.760Z,26688
2018-06-10T10:45:42.393Z,25888
2018-06-10T10:46:44.022Z,23552
2018-06-10T10:47:45.673Z,22432
2018-06-10T10:48:47.351Z,22240
2018-06-10T10:49:48.936Z,23680
2018-06-10T10:50:50.573Z,27040
2018-06-10T10:51:52.229Z,33536
2018-06-10T10:52:53.867Z,30848
2018-06-10T10:53:55.497Z,30688
2018-06-10T10:54:57.236Z,32960
2018-06-10T10:55:58.942Z,34432
2018-06-10T10:57:00.508Z,31904
2018-06-10T10:58:02.151Z,28704
2018-06-10T10:59:03.783Z,23744
2018-06-10T11:00:05.422Z,21120
2018-06-10T11:01:07.060Z,20320
2018-06-10T11:02:08.700Z,21472
2018-06-10T11:03:10.335Z,25856
2018-06-10T11:04:11.968Z,34528
2018-06-10T11:05:13.601Z,56288
2018-06-10T11:06:15.356Z,53408
2018-06-10T11:07:17.020Z,35840
2018-06-10T11:08:18.730Z,34208
2018-06-10T11:09:20.315Z,49088
2018-06-10T11:10:21.957Z,40256
2018-06-10T11:11:23.592Z,37024
2018-06-10T11:12:25.226Z,35232
2018-06-10T11:13:26.866Z,36512
2018-06-10T11:14:28.501Z,60000
2018-06-10T11:15:30.142Z,54432
2018-06-10T11:16:31.773Z,39520
2018-06-10T11:17:33.413Z,37376
2018-06-10T11:18:35.046Z,60864
2018-06-10T11:19:36.687Z,63776
2018-06-10T11:20:38.320Z,60256
2018-06-10T11:21:39.965Z,51552
2018-06-10T11:22:41.598Z,43296
2018-06-10T11:23:43.237Z,38400
2018-06-10T11:24:44.874Z,27968
2018-06-10T11:25:46.514Z,28576
2018-06-10T11:26:48.158Z,25184
2018-06-10T11:27:49.788Z,22016
2018-06-10T11:28:51.429Z,21248
2018-06-10T11:29:53.063Z,24864
2018-06-10T11:30:54.709Z,20480
2018-06-10T11:31:56.352Z,21184
2018-06-10T11:32:57.983Z,29792
2018-06-10T11:33:59.620Z,32288
2018-06-10T11:35:01.265Z,43616
2018-06-10T11:36:02.905Z,31488
2018-06-10T11:37:04.543Z,29856
2018-06-10T11:38:06.190Z,26176
2018-06-10T11:39:07.836Z,23328
2018-06-10T11:40:09.471Z,21792
2018-06-10T11:41:11.110Z,17316
2018-06-10T11:42:12.763Z,23424
2018-06-10T11:43:14.385Z,53792
2018-06-10T11:44:16.024Z,58560
2018-06-10T11:45:17.658Z,61824
2018-06-10T11:46:19.302Z,60672
2018-06-10T11:47:20.931Z,60224
2018-06-10T11:48:22.568Z,61536
2018-06-10T11:49:24.209Z,62496
2018-06-10T11:50:25.847Z,62976
2018-06-10T11:51:27.482Z,62656
2018-06-10T11:52:29.119Z,54304
2018-06-10T11:53:30.767Z,31424
2018-06-10T11:54:32.405Z,28448
2018-06-10T11:55:34.044Z,25152
2018-06-10T11:56:35.688Z,45472
2018-06-10T11:57:37.324Z,24288
2018-06-10T11:58:38.958Z,18304
2018-06-10T11:59:40.604Z,14932
2018-06-10T12:00:42.244Z,15316
2018-06-10T12:01:43.878Z,15224
2018-06-10T12:02:45.515Z,15760
2018-06-10T12:03:47.152Z,18240
2018-06-10T12:04:48.785Z,48416
2018-06-10T12:05:50.425Z,54784
2018-06-10T12:06:52.062Z,50848
2018-06-10T12:07:53.728Z,40992
2018-06-10T12:08:55.337Z,56000
2018-06-10T12:09:56.999Z,39232
2018-06-10T12:10:58.634Z,58560
2018-06-10T12:12:00.274Z,57664
2018-06-10T12:13:01.912Z,56896
2018-06-10T12:14:03.552Z,57664
2018-06-10T12:15:05.190Z,54656
2018-06-10T12:16:06.831Z,61280
2018-06-10T12:17:08.466Z,60352
2018-06-10T12:18:10.105Z,59648
2018-06-10T12:19:11.750Z,54944
2018-06-10T12:20:13.381Z,58592
2018-06-10T12:21:15.023Z,57952
2018-06-10T12:22:16.665Z,56384
2018-06-10T12:23:18.305Z,31904
2018-06-10T12:24:19.946Z,39200
2018-06-10T12:25:21.582Z,22976
2018-06-10T12:26:23.228Z,18560
2018-06-10T12:27:24.869Z,12968
2018-06-10T12:28:26.508Z,11396
2018-06-10T12:29:28.148Z,12012
2018-06-10T12:30:29.781Z,13296
2018-06-10T12:31:31.420Z,15012
2018-06-10T12:32:33.060Z,17728
2018-06-10T12:33:34.695Z,20064
2018-06-10T12:34:36.340Z,26560
2018-06-10T12:35:37.979Z,59712
2018-06-10T12:36:39.612Z,62080
2018-06-10T12:37:41.245Z,60320
2018-06-10T12:38:42.887Z,61600
2018-06-10T12:39:44.529Z,61152
2018-06-10T12:40:46.162Z,60832
2018-06-10T12:41:47.798Z,59552
2018-06-10T12:42:49.443Z,59552
2018-06-10T12:43:51.190Z,60864
2018-06-10T12:44:52.825Z,57120
2018-06-10T12:45:54.464Z,25472
2018-06-10T12:46:56.105Z,26592
2018-06-10T12:47:57.746Z,52544
2018-06-10T12:48:59.384Z,37728
2018-06-10T12:50:01.041Z,52416
2018-06-10T12:51:02.722Z,34912
2018-06-10T12:52:04.363Z,15112
2018-06-10T12:53:05.996Z,44928
2018-06-10T12:54:07.640Z,41568
2018-06-10T12:55:09.275Z,48992
2018-06-10T12:56:10.915Z,54752
2018-06-10T12:57:12.555Z,54464
2018-06-10T12:58:14.193Z,56416
2018-06-10T12:59:15.851Z,43616
2018-06-10T13:00:17.564Z,57824
2018-06-10T13:01:19.212Z,59456
2018-06-10T13:02:20.847Z,60192
2018-06-10T13:03:22.555Z,57696
2018-06-10T13:04:24.263Z,56416
2018-06-10T13:05:25.828Z,33664
2018-06-10T13:06:27.618Z,23360
2018-06-10T13:07:29.231Z,25120
2018-06-10T13:08:30.869Z,25952
2018-06-10T13:09:32.504Z,22432
2018-06-10T13:10:34.146Z,20160
2018-06-10T13:11:35.784Z,20480
2018-06-10T13:12:37.431Z,23520
2018-06-10T13:13:39.060Z,49984
2018-06-10T13:14:40.702Z,53856
2018-06-10T13:15:42.335Z,55360
2018-06-10T13:16:43.975Z,51360
2018-06-10T13:17:45.616Z,52672
2018-06-10T13:18:47.251Z,54880
2018-06-10T13:19:48.888Z,42048
2018-06-10T13:20:50.524Z,53600
2018-06-10T13:21:52.166Z,57312
2018-06-10T13:22:53.797Z,54080
2018-06-10T13:23:55.439Z,28544
2018-06-10T13:24:57.081Z,26400
2018-06-10T13:25:58.714Z,43584
2018-06-10T13:27:00.357Z,39424
2018-06-10T13:28:01.993Z,23648
2018-06-10T13:29:03.628Z,19552
2018-06-10T13:30:05.260Z,17184
2018-06-10T13:31:06.898Z,15460
2018-06-10T13:32:08.540Z,16064
2018-06-10T13:33:10.183Z,20960
2018-06-10T13:34:11.818Z,43200
2018-06-10T13:35:13.454Z,35264
2018-06-10T13:36:15.093Z,48576
2018-06-10T13:37:16.731Z,49376
2018-06-10T13:38:18.365Z,49024
2018-06-10T13:39:20.002Z,48352
2018-06-10T13:40:21.643Z,27552
2018-06-10T13:41:23.277Z,48992
2018-06-10T13:42:24.917Z,38304
2018-06-10T13:43:26.556Z,54016
2018-06-10T13:44:28.193Z,51264
2018-06-10T13:45:29.827Z,48224
2018-06-10T13:46:31.467Z,42880
2018-06-10T13:47:33.106Z,24256
2018-06-10T13:48:34.739Z,23680
2018-06-10T13:49:36.397Z,44576
2018-06-10T13:50:38.030Z,43648